Time;durP1;ratioP1;P1;durP2;ratioP2;P2;SDS_P1;SDS_P2;PMS_P1;PMS_P2;Temp;Humidity;BMP_temperature;BMP_pressure;BME280_temperature;BME280_humidity;BME280_pressure;Samples;Min_cycle;Max_cycle;Signal;HPM_P1;HPM_P2
2023/10/11 00:02:51;;;;;;;21.08;6.07;;;16.20;99.90;;;;;;5055003;28;20044;-52
2023/10/11 00:05:17;;;;;;;17.52;6.47;;;16.20;99.90;;;;;;5054429;28;20029;-49
2023/10/11 00:07:44;;;;;;;20.15;5.80;;;16.20;99.90;;;;;;5054937;28;20032;-51
2023/10/11 00:10:19;;;;;;;23.25;7.32;;;16.30;99.90;;;;;;5054783;28;20044;-52
2023/10/11 00:12:50;;;;;;;24.13;6.25;;;16.20;99.90;;;;;;5054662;28;20036;-50
2023/10/11 00:15:16;;;;;;;18.48;6.00;;;16.30;99.90;;;;;;5054723;28;20033;-47
2023/10/11 00:17:46;;;;;;;15.85;6.00;;;16.20;99.90;;;;;;5054701;28;20029;-48
2023/10/11 00:22:56;;;;;;;23.77;5.93;;;16.20;99.90;;;;;;5054229;28;20643;-52
2023/10/11 00:25:25;;;;;;;11.48;5.38;;;16.20;99.90;;;;;;5054503;28;20037;-51
2023/10/11 00:27:58;;;;;;;18.77;5.63;;;16.20;99.90;;;;;;5054533;28;20025;-52
2023/10/11 00:30:24;;;;;;;23.45;7.50;;;16.20;99.90;;;;;;5053534;28;20346;-51
2023/10/11 00:32:50;;;;;;;23.10;6.30;;;16.20;99.90;;;;;;5054355;28;20037;-51
2023/10/11 00:35:24;;;;;;;21.77;7.60;;;16.20;99.90;;;;;;5054431;28;20021;-51
2023/10/11 00:37:51;;;;;;;16.40;5.43;;;16.10;99.90;;;;;;5053516;28;20025;-50
2023/10/11 00:40:25;;;;;;;19.33;5.55;;;16.10;99.90;;;;;;5054149;28;20037;-49
2023/10/11 00:42:57;;;;;;;17.65;5.85;;;16.20;99.90;;;;;;5053327;28;20421;-50
2023/10/11 00:45:25;;;;;;;20.17;5.70;;;16.20;99.90;;;;;;5054537;28;20033;-50
2023/10/11 00:47:55;;;;;;;24.25;6.57;;;16.20;99.90;;;;;;5054371;28;20017;-51
2023/10/11 00:50:21;;;;;;;23.52;6.35;;;16.10;99.90;;;;;;5053092;28;20026;-49
2023/10/11 00:52:48;;;;;;;19.73;6.15;;;16.10;99.90;;;;;;5053935;28;20175;-49
2023/10/11 00:55:18;;;;;;;23.23;6.07;;;16.10;99.90;;;;;;5054144;28;20406;-48
2023/10/11 00:57:45;;;;;;;;;;;16.00;99.90;;;;;;5053715;28;20154;-51
2023/10/11 01:00:14;;;;;;;19.65;6.47;;;16.00;99.90;;;;;;5054388;28;19920;-48
2023/10/11 01:02:39;;;;;;;28.50;6.93;;;16.00;99.90;;;;;;5053974;28;20438;-49
2023/10/11 01:05:06;;;;;;;24.05;5.88;;;16.00;99.90;;;;;;5056117;28;20036;-48
2023/10/11 01:07:32;;;;;;;17.13;5.53;;;15.90;99.90;;;;;;5057532;28;20363;-48
2023/10/11 01:09:58;;;;;;;27.05;7.15;;;15.90;99.90;;;;;;5056718;28;20079;-51
2023/10/11 01:12:23;;;;;;;26.02;7.38;;;15.90;99.90;;;;;;5056621;28;20032;-52
2023/10/11 01:14:58;;;;;;;26.23;6.60;;;15.90;99.90;;;;;;5057652;28;20104;-50
2023/10/11 01:17:26;;;;;;;28.77;6.00;;;15.90;99.90;;;;;;5057913;28;20028;-49
2023/10/11 01:19:52;;;;;;;22.73;6.40;;;15.90;99.90;;;;;;5057731;28;20033;-48
2023/10/11 01:22:20;;;;;;;20.15;5.32;;;15.90;99.90;;;;;;5057377;28;20037;-48
2023/10/11 01:24:50;;;;;;;24.95;7.60;;;15.80;99.90;;;;;;5057473;28;20033;-49
2023/10/11 01:27:16;;;;;;;19.88;5.68;;;15.80;99.90;;;;;;5057143;28;20045;-49
2023/10/11 01:29:41;;;;;;;20.95;5.60;;;15.90;99.90;;;;;;5056457;28;20102;-49
2023/10/11 01:32:07;;;;;;;22.48;5.93;;;15.80;99.90;;;;;;5057498;28;20416;-48
2023/10/11 01:34:33;;;;;;;21.85;5.82;;;15.80;99.90;;;;;;5057493;28;20025;-49
2023/10/11 01:36:59;;;;;;;22.67;6.43;;;15.80;99.90;;;;;;5056173;28;20114;-49
2023/10/11 01:39:25;;;;;;;35.22;8.15;;;15.80;99.90;;;;;;5056998;28;20033;-48
2023/10/11 01:41:54;;;;;;;23.45;6.22;;;15.80;99.90;;;;;;5057363;28;20033;-48
2023/10/11 01:44:22;;;;;;;25.38;6.53;;;15.80;99.90;;;;;;5057024;28;20112;-48
2023/10/11 01:46:48;;;;;;;21.30;6.07;;;15.80;99.90;;;;;;5057283;28;20043;-49
2023/10/11 01:49:14;;;;;;;21.30;6.05;;;15.80;99.90;;;;;;5056275;28;20418;-49
2023/10/11 01:51:46;;;;;;;19.02;6.03;;;15.80;99.90;;;;;;5057326;28;20044;-49
2023/10/11 01:54:11;;;;;;;21.00;6.90;;;15.70;99.90;;;;;;5057179;28;20028;-48
2023/10/11 01:56:38;;;;;;;19.73;5.68;;;15.70;99.90;;;;;;5056835;28;20037;-49
2023/10/11 01:59:04;;;;;;;21.55;6.05;;;15.70;99.90;;;;;;5055773;28;20119;-51
2023/10/11 02:01:38;;;;;;;27.67;6.15;;;15.60;99.90;;;;;;5056953;28;20021;-51
2023/10/11 02:04:04;;;;;;;15.90;5.45;;;15.70;99.90;;;;;;5056963;28;20045;-48
2023/10/11 02:06:32;;;;;;;15.73;4.38;;;15.60;99.90;;;;;;5056616;28;20049;-49
2023/10/11 02:08:59;;;;;;;25.95;6.32;;;15.60;99.90;;;;;;5056792;28;20033;-49
2023/10/11 02:11:25;;;;;;;25.90;6.18;;;15.60;99.90;;;;;;5056218;28;20044;-52
2023/10/11 02:13:52;;;;;;;25.23;6.55;;;15.60;99.90;;;;;;5056240;28;20032;-51
2023/10/11 02:16:18;;;;;;;29.13;6.95;;;15.60;99.90;;;;;;5055529;28;20393;-49
2023/10/11 02:18:48;;;;;;;20.02;5.70;;;15.60;99.90;;;;;;5056745;28;20020;-51
2023/10/11 02:21:13;;;;;;;15.07;4.72;;;15.60;99.90;;;;;;5056475;28;20358;-48
2023/10/11 02:23:42;;;;;;;28.38;5.82;;;15.50;99.90;;;;;;5056715;28;20037;-48
2023/10/11 02:26:14;;;;;;;17.17;5.30;;;15.50;99.90;;;;;;5056544;28;20040;-51
2023/10/11 02:28:40;;;;;;;15.43;6.13;;;15.50;99.90;;;;;;5056177;28;20112;-51
2023/10/11 02:31:06;;;;;;;22.90;5.88;;;15.50;99.90;;;;;;5056185;28;20044;-48
2023/10/11 02:33:33;;;;;;;23.73;5.47;;;15.50;99.90;;;;;;5055212;28;20434;-51
2023/10/11 02:36:17;;;;;;;26.42;5.88;;;15.50;99.90;;;;;;5056270;28;20029;-51
2023/10/11 02:38:50;;;;;;;25.30;5.53;;;15.50;99.90;;;;;;5056051;28;20358;-51
2023/10/11 02:41:29;;;;;;;23.52;5.53;;;15.50;99.90;;;;;;5056225;28;20122;-51
2023/10/11 02:43:57;;;;;;;26.35;6.18;;;15.40;99.90;;;;;;5055638;28;20037;-52
2023/10/11 02:46:23;;;;;;;19.88;5.68;;;15.40;99.90;;;;;;5054862;28;20052;-51
2023/10/11 02:49:05;;;;;;;25.52;5.75;;;15.40;99.90;;;;;;5055173;28;20111;-52
2023/10/11 02:51:34;;;;;;;25.63;6.30;;;15.40;99.90;;;;;;5055978;28;20040;-52
2023/10/11 02:54:04;;;;;;;24.30;5.85;;;15.40;99.90;;;;;;5055874;28;20033;-52
2023/10/11 02:56:46;;;;;;;31.75;6.10;;;15.40;99.90;;;;;;5056019;28;20025;-52
2023/10/11 02:59:19;;;;;;;22.42;5.43;;;15.40;99.90;;;;;;5054627;28;20057;-51
2023/10/11 03:01:46;;;;;;;23.25;5.55;;;15.40;99.90;;;;;;5055398;28;20462;-51
2023/10/11 03:04:16;;;;;;;22.48;6.30;;;15.40;99.90;;;;;;5055781;28;20044;-51
2023/10/11 03:06:49;;;;;;;22.67;6.13;;;15.40;99.90;;;;;;5055496;28;20053;-50
2023/10/11 03:09:18;;;;;;;18.65;5.60;;;15.40;99.90;;;;;;5055842;28;20082;-51
2023/10/11 03:11:45;;;;;;;20.05;6.05;;;15.50;99.90;;;;;;5055621;28;20465;-48
2023/10/11 03:14:15;;;;;;;25.48;6.90;;;15.40;99.90;;;;;;5055332;28;20048;-52
2023/10/11 03:16:43;;;;;;;20.52;6.00;;;15.50;99.90;;;;;;5055475;28;20024;-52
2023/10/11 03:19:12;;;;;;;16.58;5.32;;;15.50;99.90;;;;;;5055323;28;20398;-51
2023/10/11 03:21:38;;;;;;;27.08;6.68;;;15.50;99.90;;;;;;5055480;28;20029;-51
2023/10/11 03:24:05;;;;;;;28.58;7.32;;;15.50;99.90;;;;;;5037699;28;20040;-53
2023/10/11 03:26:31;;;;;;;21.98;5.38;;;15.50;99.90;;;;;;5055076;28;20029;-51
2023/10/11 03:29:04;;;;;;;25.45;6.32;;;15.50;99.90;;;;;;5053663;28;20029;-51
2023/10/11 03:31:34;;;;;;;26.92;7.10;;;15.50;99.90;;;;;;5055214;28;20036;-51
2023/10/11 03:34:01;;;;;;;19.42;5.43;;;15.50;99.90;;;;;;5055206;28;20467;-51
2023/10/11 03:36:31;;;;;;;27.38;6.28;;;15.50;99.90;;;;;;5054978;28;20350;-51
2023/10/11 03:38:58;;;;;;;24.80;6.45;;;15.50;99.90;;;;;;5054289;28;20033;-51
2023/10/11 03:41:29;;;;;;;25.88;6.28;;;15.50;99.90;;;;;;5055042;28;20025;-52
2023/10/11 03:44:00;;;;;;;21.48;6.57;;;15.50;99.90;;;;;;5055169;28;20069;-52
2023/10/11 03:46:28;;;;;;;13.55;6.00;;;15.50;99.90;;;;;;5055200;28;20029;-52
2023/10/11 03:49:13;;;;;;;18.40;6.07;;;15.50;99.90;;;;;;5054546;28;20112;-51
2023/10/11 03:51:43;;;;;;;23.23;5.97;;;15.50;99.90;;;;;;5039487;28;20091;-52
2023/10/11 03:54:21;;;;;;;17.10;5.25;;;15.50;99.90;;;;;;5054967;28;20028;-49
2023/10/11 03:56:53;;;;;;;18.95;5.57;;;15.50;99.90;;;;;;5054711;28;20446;-51
2023/10/11 03:59:29;;;;;;;22.67;6.90;;;15.50;99.90;;;;;;5054921;28;20037;-52
2023/10/11 04:01:59;;;;;;;25.58;6.50;;;15.50;99.90;;;;;;5054439;28;20142;-51
2023/10/11 04:04:25;;;;;;;19.08;5.60;;;15.50;99.90;;;;;;5054811;28;20037;-52
2023/10/11 04:06:51;;;;;;;21.38;6.47;;;15.50;99.90;;;;;;5054530;28;20053;-52
2023/10/11 04:09:32;;;;;;;19.40;5.63;;;15.40;99.90;;;;;;5054748;28;20044;-51
2023/10/11 04:12:01;;;;;;;19.20;6.03;;;15.40;99.90;;;;;;5054685;28;20051;-51
2023/10/11 04:14:49;;;;;;;20.50;7.38;;;15.40;99.90;;;;;;5054368;28;20492;-52
2023/10/11 04:19:48;;;;;;;18.45;5.95;;;15.40;99.90;;;;;;5054823;28;20419;-49
2023/10/11 04:22:17;;;;;;;20.00;5.82;;;15.40;99.90;;;;;;5054325;28;20037;-51
2023/10/11 04:24:48;;;;;;;20.60;5.80;;;15.40;99.90;;;;;;5054417;28;20039;-52
2023/10/11 04:29:45;;;;;;;19.92;5.15;;;15.40;99.90;;;;;;5054699;28;20033;-50
2023/10/11 04:32:14;;;;;;;21.23;5.10;;;15.40;99.90;;;;;;5054428;28;20358;-51
2023/10/11 04:34:48;;;;;;;17.67;4.85;;;15.40;99.90;;;;;;5054358;28;20025;-48
2023/10/11 04:37:27;;;;;;;18.65;5.28;;;15.40;99.90;;;;;;5054469;28;20043;-51
2023/10/11 04:39:59;;;;;;;14.25;4.55;;;15.40;99.90;;;;;;5056276;28;20335;-51
2023/10/11 04:42:28;;;;;;;13.32;4.15;;;15.40;99.90;;;;;;5057224;28;20323;-52
2023/10/11 04:44:57;;;;;;;21.83;4.95;;;15.40;99.90;;;;;;5058218;28;20037;-53
2023/10/11 04:47:23;;;;;;;17.45;5.47;;;15.40;99.90;;;;;;5057139;28;20039;-51
2023/10/11 04:49:52;;;;;;;18.70;5.43;;;15.40;99.90;;;;;;5058254;28;20029;-52
2023/10/11 04:52:25;;;;;;;17.63;5.93;;;15.40;99.90;;;;;;5056912;28;20033;-49
2023/10/11 04:54:54;;;;;;;18.05;5.40;;;15.40;99.90;;;;;;5057986;28;20104;-52
2023/10/11 04:57:40;;;;;;;25.85;6.03;;;15.40;99.90;;;;;;5058018;28;20108;-51
2023/10/11 05:00:09;;;;;;;19.95;6.43;;;15.50;99.90;;;;;;5058055;28;20068;-51
2023/10/11 05:02:37;;;;;;;20.67;6.40;;;15.50;99.90;;;;;;5056776;28;20032;-51
2023/10/11 05:05:10;;;;;;;18.05;6.15;;;15.40;99.90;;;;;;5057363;28;20032;-51
2023/10/11 05:07:42;;;;;;;28.45;6.95;;;15.40;99.90;;;;;;5058032;28;20466;-52
2023/10/11 05:12:58;;;;;;;24.50;5.43;;;15.50;99.90;;;;;;5057890;28;20028;-51
2023/10/11 05:15:34;;;;;;;19.48;5.30;;;15.40;99.90;;;;;;5057922;28;20021;-51
2023/10/11 05:18:00;;;;;;;16.60;4.95;;;15.40;99.90;;;;;;5057772;28;20033;-52
2023/10/11 05:20:45;;;;;;;20.88;5.50;;;15.40;99.90;;;;;;5057404;28;20029;-51
2023/10/11 05:23:14;;;;;;;13.35;4.72;;;15.40;99.90;;;;;;5057450;28;20438;-51
2023/10/11 05:25:58;;;;;;;16.93;5.33;;;15.40;99.90;;;;;;5057626;28;20029;-51
2023/10/11 05:36:39;;;;;;;19.80;7.32;;;15.50;99.90;;;;;;5057557;28;20371;-51
2023/10/11 05:52:55;;;;;;;21.52;5.18;;;15.50;99.90;;;;;;5056561;28;20063;-51
2023/10/11 05:55:22;;;;;;;21.20;6.13;;;15.50;99.90;;;;;;5056548;28;20035;-50
2023/10/11 05:57:49;;;;;;;15.43;5.05;;;15.60;99.90;;;;;;5055695;28;20025;-51
2023/10/11 06:00:23;;;;;;;19.27;4.95;;;15.60;99.90;;;;;;5056697;28;20029;-52
2023/10/11 06:02:51;;;;;;;13.88;4.75;;;15.60;99.90;;;;;;5040449;28;20067;-51
2023/10/11 06:05:22;;;;;;;16.55;4.55;;;15.60;99.90;;;;;;5056469;28;20416;-51
2023/10/11 06:08:00;;;;;;;11.48;4.30;;;15.60;99.90;;;;;;5056876;28;20033;-52
2023/10/11 06:10:35;;;;;;;14.40;4.72;;;15.60;99.90;;;;;;5056543;28;20067;-51
2023/10/11 06:13:02;;;;;;;15.10;4.95;;;15.60;99.90;;;;;;5056665;28;20450;-51
2023/10/11 06:15:28;;;;;;;16.67;4.57;;;15.60;99.90;;;;;;5056588;28;20031;-49
2023/10/11 06:17:55;;;;;;;15.88;4.80;;;15.60;99.90;;;;;;5056522;28;20032;-51
2023/10/11 06:20:26;;;;;;;20.42;5.45;;;15.60;99.90;;;;;;5056459;28;20021;-51
2023/10/11 06:22:53;;;;;;;15.63;4.63;;;15.60;99.90;;;;;;5056144;28;20079;-49
2023/10/11 06:28:13;;;;;;;18.55;4.40;;;15.60;99.90;;;;;;5055672;28;20480;-51
2023/10/11 06:30:40;;;;;;;16.40;4.47;;;15.60;99.90;;;;;;5056019;28;20075;-48
2023/10/11 06:33:07;;;;;;;19.85;4.20;;;15.60;99.90;;;;;;5056158;28;20021;-48
2023/10/11 06:35:43;;;;;;;13.60;3.95;;;15.60;99.90;;;;;;5056177;28;20032;-51
2023/10/11 06:38:10;;;;;;;13.90;4.00;;;15.60;99.90;;;;;;5056171;28;20030;-49
2023/10/11 06:40:39;;;;;;;13.63;3.85;;;15.60;99.90;;;;;;5055876;28;20489;-48
2023/10/11 06:43:12;;;;;;;16.30;5.18;;;15.60;99.90;;;;;;5055877;28;20035;-49
2023/10/11 06:45:40;;;;;;;14.40;4.60;;;15.60;99.90;;;;;;5055998;28;20043;-50
2023/10/11 06:48:08;;;;;;;12.85;4.57;;;15.60;99.90;;;;;;5056195;28;20035;-48
2023/10/11 06:50:37;;;;;;;17.88;4.40;;;15.60;99.90;;;;;;5055609;28;20075;-48
2023/10/11 06:53:07;;;;;;;14.13;3.90;;;15.60;99.90;;;;;;5054607;28;20044;-50
2023/10/11 06:55:33;;;;;;;15.30;4.63;;;15.70;99.90;;;;;;5055344;28;20025;-51
2023/10/11 06:58:05;;;;;;;15.63;4.47;;;15.60;99.90;;;;;;5054566;28;20442;-51
2023/10/11 07:00:37;;;;;;;19.90;5.65;;;15.60;99.90;;;;;;5055674;28;20066;-51
2023/10/11 07:05:56;;;;;;;16.48;4.10;;;15.70;99.90;;;;;;5054195;28;20474;-47
2023/10/11 07:08:31;;;;;;;18.63;4.43;;;15.60;99.90;;;;;;5055214;28;20021;-50
2023/10/11 07:11:10;;;;;;;14.70;4.28;;;15.70;99.90;;;;;;5054949;28;20048;-51
2023/10/11 07:16:27;;;;;;;4.53;1.17;;;15.70;99.90;;;;;;5055160;28;20358;-50
2023/10/11 07:18:56;;;;;;;2.88;0.98;;;15.40;99.90;;;;;;5055204;28;20048;-48
2023/10/11 07:21:27;;;;;;;2.05;1.55;;;15.10;99.90;;;;;;5055289;28;20033;-49
2023/10/11 07:29:02;;;;;;;1.63;1.00;;;14.70;99.90;;;;;;5055282;28;20361;-52
2023/10/11 07:31:33;;;;;;;1.70;0.70;;;14.60;99.90;;;;;;5055087;28;20037;-51
2023/10/11 07:34:05;;;;;;;0.75;0.60;;;14.60;99.90;;;;;;5055194;28;20323;-49
2023/10/11 07:36:32;;;;;;;2.15;0.80;;;14.50;99.90;;;;;;5054988;28;20033;-50
2023/10/11 07:39:10;;;;;;;1.55;1.15;;;14.50;99.90;;;;;;5054945;28;20029;-51
2023/10/11 07:41:42;;;;;;;3.28;0.93;;;14.40;99.90;;;;;;5054972;28;20449;-51
2023/10/11 07:44:09;;;;;;;3.72;1.60;;;14.40;99.90;;;;;;5054109;28;20051;-51
2023/10/11 07:46:37;;;;;;;0.70;0.70;;;14.40;99.90;;;;;;5054624;28;20379;-51
2023/10/11 07:49:06;;;;;;;2.22;0.80;;;14.30;99.90;;;;;;5053696;28;20033;-49
2023/10/11 07:51:36;;;;;;;3.20;0.90;;;14.30;99.90;;;;;;5054451;28;20048;-51
2023/10/11 07:54:06;;;;;;;;;;;14.20;99.90;;;;;;5053826;28;20048;-51
2023/10/11 07:56:36;;;;;;;5.20;1.70;;;14.10;99.90;;;;;;5054295;28;19919;-51
2023/10/11 07:59:07;;;;;;;5.93;4.10;;;14.00;99.90;;;;;;5054192;28;20040;-51
2023/10/11 08:01:42;;;;;;;5.75;1.10;;;14.00;99.90;;;;;;5054551;28;20037;-49
2023/10/11 08:04:09;;;;;;;2.72;1.08;;;14.00;99.90;;;;;;5053594;28;20040;-51
2023/10/11 08:06:39;;;;;;;6.00;3.20;;;14.00;99.90;;;;;;5054380;28;20488;-49
2023/10/11 08:09:06;;;;;;;4.50;1.00;;;13.90;99.90;;;;;;5054543;28;20327;-48
2023/10/11 08:11:45;;;;;;;2.28;1.05;;;13.90;99.90;;;;;;5054560;28;20028;-48
2023/10/11 08:14:21;;;;;;;3.90;1.45;;;13.90;99.90;;;;;;5059432;28;20033;-51
2023/10/11 08:16:50;;;;;;;4.25;1.60;;;13.80;99.90;;;;;;5060762;28;20136;-49
2023/10/11 08:19:16;;;;;;;6.13;1.15;;;13.80;99.90;;;;;;5061020;28;20017;-49
2023/10/11 08:21:47;;;;;;;7.18;1.40;;;13.80;99.90;;;;;;5061058;28;20120;-50
2023/10/11 08:24:15;;;;;;;4.15;1.92;;;13.60;99.90;;;;;;5059955;28;20035;-51
2023/10/11 08:26:45;;;;;;;3.88;1.60;;;13.60;99.90;;;;;;5060890;28;20032;-50
2023/10/11 08:29:17;;;;;;;3.95;0.90;;;13.60;99.90;;;;;;5060904;28;20028;-50
2023/10/11 08:31:44;;;;;;;3.70;1.23;;;13.50;99.90;;;;;;5060998;28;20469;-50
2023/10/11 08:34:14;;;;;;;4.25;1.40;;;13.40;99.90;;;;;;5059800;28;20447;-51
2023/10/11 08:36:41;;;;;;;4.32;1.23;;;13.40;99.90;;;;;;5060930;28;20361;-51
2023/10/11 08:39:08;;;;;;;5.63;1.77;;;13.40;99.90;;;;;;5043461;28;20068;-51
2023/10/11 08:41:34;;;;;;;6.50;1.35;;;13.40;99.90;;;;;;5059912;28;20041;-51
2023/10/11 08:44:08;;;;;;;7.55;1.45;;;13.30;99.90;;;;;;5061127;28;20109;-51
2023/10/11 08:46:34;;;;;;;6.82;1.60;;;13.30;99.90;;;;;;5060781;28;20037;-51
2023/10/11 08:49:00;;;;;;;6.45;1.88;;;13.30;99.90;;;;;;5059644;28;20098;-50
2023/10/11 08:51:36;;;;;;;9.05;2.28;;;13.30;99.90;;;;;;5060729;28;20102;-50
2023/10/11 08:54:03;;;;;;;8.82;1.80;;;13.30;99.90;;;;;;5060840;28;20029;-50
2023/10/11 08:56:28;;;;;;;8.88;1.70;;;13.30;99.90;;;;;;5060770;28;20056;-51
2023/10/11 08:58:54;;;;;;;8.93;1.85;;;13.30;99.90;;;;;;5060782;28;20064;-50
2023/10/11 09:01:24;;;;;;;8.15;1.60;;;13.30;99.90;;;;;;5060910;28;20112;-50
2023/10/11 09:04:11;;;;;;;8.18;1.70;;;13.30;99.90;;;;;;5060320;28;20048;-50
2023/10/11 09:06:40;;;;;;;5.70;1.75;;;13.30;99.90;;;;;;5059515;28;20057;-50
2023/10/11 09:09:07;;;;;;;12.07;2.85;;;13.30;99.90;;;;;;5059608;28;20044;-50
2023/10/11 09:11:32;;;;;;;6.93;2.00;;;13.30;99.90;;;;;;5060729;28;20116;-50
2023/10/11 09:14:11;;;;;;;6.88;1.55;;;13.30;99.90;;;;;;5060657;28;20071;-49
2023/10/11 09:16:37;;;;;;;8.93;1.85;;;13.30;99.90;;;;;;5060295;28;20029;-47
2023/10/11 09:19:06;;;;;;;14.25;2.20;;;13.30;99.90;;;;;;5059608;28;20025;-48
2023/10/11 09:21:35;;;;;;;11.70;2.35;;;13.20;99.90;;;;;;5059559;28;20111;-49
2023/10/11 09:24:03;;;;;;;14.37;2.10;;;13.10;99.90;;;;;;5059503;28;20411;-48
2023/10/11 09:26:32;;;;;;;16.55;5.65;;;13.10;99.90;;;;;;5055713;28;20316;-48
2023/10/11 09:29:02;;;;;;;20.33;5.70;;;13.10;99.90;;;;;;5057447;28;20036;-46
2023/10/11 09:31:31;;;;;;;11.18;3.10;;;13.10;99.90;;;;;;5057356;28;20037;-48
2023/10/11 09:34:02;;;;;;;11.70;2.97;;;13.20;99.90;;;;;;5057322;28;20079;-48
2023/10/11 09:36:28;;;;;;;17.50;3.90;;;13.20;99.90;;;;;;5057272;28;20413;-48
2023/10/11 09:38:54;;;;;;;15.27;2.63;;;13.10;99.90;;;;;;5057084;28;20068;-48
2023/10/11 09:41:38;;;;;;;18.27;3.47;;;13.10;99.90;;;;;;5057316;28;20037;-46
2023/10/11 09:44:05;;;;;;;15.70;2.83;;;13.10;99.90;;;;;;5056181;28;20040;-47
2023/10/11 09:46:33;;;;;;;14.85;2.50;;;13.10;99.90;;;;;;5057174;28;20100;-49
2023/10/11 09:49:00;;;;;;;14.68;2.75;;;13.10;99.90;;;;;;5055797;28;20036;-47
2023/10/11 09:51:26;;;;;;;10.65;2.95;;;13.20;99.90;;;;;;5055945;28;20021;-47
2023/10/11 09:53:53;;;;;;;13.38;2.90;;;13.20;99.90;;;;;;5055872;28;20450;-50
2023/10/11 09:56:48;;;;;;;10.90;2.75;;;13.30;99.90;;;;;;5056620;28;20446;-50
2023/10/11 09:59:46;;;;;;;17.63;2.60;;;13.30;99.90;;;;;;5055645;28;20365;-49
2023/10/11 10:02:34;;;;;;;13.82;3.00;;;13.30;99.90;;;;;;5056282;28;20083;-50
2023/10/11 10:05:05;;;;;;;10.35;2.33;;;13.30;99.90;;;;;;5055418;28;20037;-50
2023/10/11 10:07:52;;;;;;;11.02;2.58;;;13.30;99.90;;;;;;5055583;28;20041;-48
2023/10/11 10:10:25;;;;;;;15.05;3.65;;;13.30;99.90;;;;;;5056102;28;20053;-47
2023/10/11 10:12:58;;;;;;;12.85;2.50;;;13.20;99.90;;;;;;5055270;28;20025;-47
2023/10/11 10:15:36;;;;;;;16.17;2.38;;;13.20;99.90;;;;;;5056598;28;20346;-48
2023/10/11 10:18:12;;;;;;;10.02;3.22;;;13.20;99.90;;;;;;5055283;28;20089;-48
2023/10/11 10:20:41;;;;;;;11.00;3.10;;;13.20;99.90;;;;;;5056567;28;20029;-50
2023/10/11 10:23:16;;;;;;;11.48;2.42;;;13.20;99.90;;;;;;5056372;28;20044;-47
2023/10/11 10:25:49;;;;;;;13.52;2.88;;;13.10;99.90;;;;;;5056414;28;20033;-48
2023/10/11 10:28:36;;;;;;;13.48;3.03;;;13.10;99.90;;;;;;5054979;28;20040;-50
2023/10/11 10:31:18;;;;;;;15.73;3.30;;;13.10;99.90;;;;;;5055778;28;20358;-51
2023/10/11 10:33:51;;;;;;;10.90;2.42;;;13.10;99.90;;;;;;5055766;28;20033;-51
2023/10/11 10:36:29;;;;;;;13.52;2.85;;;13.20;99.90;;;;;;5054269;28;20025;-48
2023/10/11 10:39:00;;;;;;;17.73;3.53;;;13.20;99.90;;;;;;5055517;28;20431;-50
2023/10/11 10:41:26;;;;;;;12.13;3.35;;;13.20;99.90;;;;;;5055951;28;20043;-49
2023/10/11 10:44:17;;;;;;;17.02;3.22;;;13.30;99.90;;;;;;5055328;28;20033;-47
2023/10/11 10:46:50;;;;;;;16.98;3.00;;;13.40;99.90;;;;;;5054419;28;20033;-49
2023/10/11 10:49:20;;;;;;;18.13;3.33;;;13.40;99.90;;;;;;5055789;28;20520;-50
2023/10/11 10:51:48;;;;;;;17.20;3.70;;;13.40;99.90;;;;;;5054867;28;20037;-50
2023/10/11 10:54:17;;;;;;;10.02;2.80;;;13.40;99.90;;;;;;5038224;28;20047;-50
2023/10/11 10:56:46;;;;;;;14.63;3.22;;;13.40;99.90;;;;;;5055366;28;20060;-49
2023/10/11 10:59:12;;;;;;;14.23;3.80;;;13.40;99.90;;;;;;5055200;28;20086;-51
2023/10/11 11:01:38;;;;;;;17.13;4.05;;;13.40;99.90;;;;;;5055369;28;20108;-47
2023/10/11 11:04:08;;;;;;;13.30;2.88;;;13.40;99.90;;;;;;5055409;28;20040;-48
2023/10/11 11:06:40;;;;;;;15.63;3.58;;;13.30;99.90;;;;;;5054992;28;20521;-51
2023/10/11 11:09:13;;;;;;;13.05;2.90;;;13.40;99.90;;;;;;5055111;28;20353;-49
2023/10/11 11:11:39;;;;;;;16.60;3.22;;;13.40;99.90;;;;;;5055031;28;20055;-50
2023/10/11 11:14:13;;;;;;;13.93;2.65;;;13.40;99.90;;;;;;5054985;28;20025;-49
2023/10/11 11:16:44;;;;;;;12.95;2.42;;;13.50;99.90;;;;;;5055107;28;20033;-51
2023/10/11 11:19:16;;;;;;;11.80;3.75;;;13.50;99.90;;;;;;5054657;28;20108;-51
2023/10/11 11:21:46;;;;;;;9.95;2.75;;;13.40;99.90;;;;;;5053714;28;20090;-50
2023/10/11 11:24:18;;;;;;;14.18;2.85;;;13.40;99.90;;;;;;5054989;28;20029;-51
2023/10/11 11:26:45;;;;;;;8.05;2.60;;;13.40;99.90;;;;;;5053707;28;20039;-50
2023/10/11 11:29:16;;;;;;;12.05;4.18;;;13.30;99.90;;;;;;5053623;28;20033;-48
2023/10/11 11:31:52;;;;;;;16.30;2.80;;;13.30;99.90;;;;;;5054953;28;20502;-49
2023/10/11 11:34:27;;;;;;;14.98;3.10;;;13.20;99.90;;;;;;5037029;28;20037;-48
2023/10/11 11:37:00;;;;;;;12.45;3.28;;;13.20;99.90;;;;;;5053504;28;20036;-49
2023/10/11 11:39:44;;;;;;;15.18;2.92;;;13.20;99.90;;;;;;5054519;28;20029;-49
2023/10/11 11:42:19;;;;;;;11.48;3.15;;;13.20;99.90;;;;;;5055010;28;20111;-51
2023/10/11 11:44:46;;;;;;;16.00;3.22;;;13.20;99.90;;;;;;5054895;28;20029;-49
2023/10/11 11:47:11;;;;;;;15.57;3.13;;;13.20;99.90;;;;;;5054678;28;20029;-49
2023/10/11 11:49:37;;;;;;;13.40;3.20;;;13.20;99.90;;;;;;5054462;28;20370;-48
2023/10/11 11:52:03;;;;;;;13.07;3.00;;;13.10;99.90;;;;;;5054726;28;20029;-49
2023/10/11 11:54:29;;;;;;;14.15;2.55;;;13.10;99.90;;;;;;5054397;28;20054;-49
2023/10/11 11:56:55;;;;;;;11.13;2.30;;;13.10;99.90;;;;;;5054844;28;20033;-50
2023/10/11 11:59:21;;;;;;;16.10;3.35;;;13.10;99.90;;;;;;5054675;28;20040;-49
2023/10/11 12:01:56;;;;;;;16.40;4.65;;;13.10;99.90;;;;;;5054668;28;20500;-48
2023/10/11 12:04:29;;;;;;;11.48;2.65;;;13.20;99.90;;;;;;5053587;28;20049;-49
2023/10/11 12:06:57;;;;;;;20.05;5.03;;;13.20;99.90;;;;;;5054376;28;20421;-50
2023/10/11 12:09:24;;;;;;;12.23;2.95;;;13.20;99.90;;;;;;5054351;28;20037;-48
2023/10/11 12:11:50;;;;;;;22.13;6.47;;;13.20;99.90;;;;;;5053127;28;20021;-49
2023/10/11 12:14:16;;;;;;;17.23;3.20;;;13.20;99.90;;;;;;5054189;28;20086;-48
2023/10/11 12:16:42;;;;;;;18.02;3.70;;;13.20;99.90;;;;;;5053268;28;20122;-49
2023/10/11 12:19:12;;;;;;;15.90;4.22;;;13.20;99.90;;;;;;5054189;28;20021;-49
2023/10/11 12:21:38;;;;;;;;;;;13.10;99.90;;;;;;5054981;28;20029;-49
2023/10/11 12:24:11;;;;;;;13.77;3.33;;;13.10;99.90;;;;;;5053707;28;19913;-48
2023/10/11 12:26:42;;;;;;;9.18;2.75;;;13.00;99.90;;;;;;5053220;28;20029;-49
2023/10/11 12:29:09;;;;;;;14.85;2.63;;;13.00;99.90;;;;;;5054294;28;20369;-48
2023/10/11 12:31:40;;;;;;;10.65;2.63;;;12.90;99.90;;;;;;5053135;28;20033;-48
2023/10/11 12:34:10;;;;;;;13.68;3.05;;;12.90;99.90;;;;;;5054417;28;20037;-48
2023/10/11 12:36:39;;;;;;;15.93;2.77;;;12.90;99.90;;;;;;5053968;28;20055;-48
2023/10/11 12:39:20;;;;;;;17.88;3.45;;;12.80;99.90;;;;;;5054141;28;20036;-48
2023/10/11 12:41:52;;;;;;;11.57;2.95;;;12.80;99.90;;;;;;5054585;28;20037;-48
2023/10/11 12:44:21;;;;;;;10.02;2.35;;;12.70;99.90;;;;;;5053561;28;20362;-51
2023/10/11 12:46:51;;;;;;;18.33;6.72;;;12.70;99.90;;;;;;5054030;28;20033;-48
2023/10/11 12:49:17;;;;;;;13.98;3.47;;;12.70;99.90;;;;;;5053240;28;20060;-47
2023/10/11 12:51:47;;;;;;;11.98;2.72;;;12.70;99.90;;;;;;5036483;28;20116;-46
2023/10/11 12:54:15;;;;;;;11.77;3.60;;;12.70;99.90;;;;;;5053075;28;20063;-51
2023/10/11 12:56:44;;;;;;;13.48;2.35;;;12.60;99.90;;;;;;5054154;28;20029;-50
2023/10/11 12:59:12;;;;;;;12.88;2.83;;;12.60;99.90;;;;;;5053041;28;20029;-49
2023/10/11 13:01:50;;;;;;;53.55;49.47;;;12.60;99.90;;;;;;5055952;28;20059;-52
2023/10/11 13:04:24;;;;;;;9.98;3.10;;;12.60;99.90;;;;;;5040434;28;20041;-51
2023/10/11 13:06:50;;;;;;;12.10;2.75;;;12.60;99.90;;;;;;5056486;28;20076;-51
2023/10/11 13:09:18;;;;;;;20.38;8.65;;;12.70;99.90;;;;;;5057085;28;20029;-51
2023/10/11 13:11:44;;;;;;;12.20;2.83;;;12.70;99.90;;;;;;5056362;28;20086;-52
2023/10/11 13:14:20;;;;;;;15.60;3.13;;;12.60;99.90;;;;;;5057266;28;20119;-50
2023/10/11 13:16:54;;;;;;;12.85;2.53;;;12.60;99.90;;;;;;5057336;28;20033;-49
2023/10/11 13:19:24;;;;;;;12.50;3.17;;;12.60;99.90;;;;;;5056504;28;20452;-51
2023/10/11 13:21:53;;;;;;;9.35;2.50;;;12.70;99.90;;;;;;5057648;28;20347;-51
2023/10/11 13:24:23;;;;;;;12.93;2.42;;;12.80;99.90;;;;;;5057263;28;20117;-51
2023/10/11 13:26:56;;;;;;;12.95;2.65;;;12.80;99.90;;;;;;5056393;28;20029;-51
2023/10/11 13:29:23;;;;;;;10.65;2.20;;;12.80;99.90;;;;;;5057316;28;20384;-52
2023/10/11 13:31:53;;;;;;;11.88;2.15;;;12.90;99.90;;;;;;5057246;28;20044;-50
2023/10/11 13:34:19;;;;;;;11.40;2.42;;;12.90;99.90;;;;;;5056274;28;20028;-51
2023/10/11 13:36:45;;;;;;;15.75;4.03;;;12.70;99.90;;;;;;5057211;28;20029;-49
2023/10/11 13:39:26;;;;;;;11.80;2.95;;;12.70;99.90;;;;;;5057184;28;20033;-52
2023/10/11 13:41:55;;;;;;;12.73;3.50;;;12.70;99.90;;;;;;5057114;28;20036;-50